Terminal Aerodrome Forecast
Issued by NWS

Home | Current Version | Previous Version | Text Only | Print | Product List | Glossary On
Versions: 1 2 3 4 5 6 7 8 9 10 11 12 13 14 15 16 17 18 19 20 21 22 23 24
000
FTUS44 KOUN 021739
TAFWWR
TAF
KWWR 021739Z 0218/0318 10009KT P6SM VCTS SCT060CB BKN200
      TEMPO 0220/0223 4SM -TSRA BKN050CB OVC100
     FM030000 07008KT P6SM BKN080=

USA.gov is the U.S. government's official web portal to all federal, state and local government web resources and services.